sensor_id;sensor_type;location;lat;lon;timestamp;pressure;altitude;pressure_sealevel;temperature;humidity
9740;BME280;4909;42.680;26.324;2022-11-15T00:00:47;99302.34;;;12.44;89.43
9740;BME280;4909;42.680;26.324;2022-11-15T00:03:14;99301.59;;;12.41;89.56
9740;BME280;4909;42.680;26.324;2022-11-15T00:05:41;99304.50;;;12.35;90.00
9740;BME280;4909;42.680;26.324;2022-11-15T00:08:08;99307.13;;;12.36;89.62
9740;BME280;4909;42.680;26.324;2022-11-15T00:10:35;99291.03;;;12.59;88.52
9740;BME280;4909;42.680;26.324;2022-11-15T00:13:04;99293.31;;;12.69;87.79
9740;BME280;4909;42.680;26.324;2022-11-15T00:15:31;99303.91;;;12.70;87.65
9740;BME280;4909;42.680;26.324;2022-11-15T00:18:02;99297.44;;;12.55;87.98
9740;BME280;4909;42.680;26.324;2022-11-15T00:20:28;99281.50;;;12.54;88.13
9740;BME280;4909;42.680;26.324;2022-11-15T00:22:55;99299.41;;;12.72;87.39
9740;BME280;4909;42.680;26.324;2022-11-15T00:25:22;99296.56;;;12.55;87.46
9740;BME280;4909;42.680;26.324;2022-11-15T00:27:49;99295.31;;;12.63;87.32
9740;BME280;4909;42.680;26.324;2022-11-15T00:30:17;99291.00;;;12.61;87.74
9740;BME280;4909;42.680;26.324;2022-11-15T00:32:43;99288.34;;;12.81;86.86
9740;BME280;4909;42.680;26.324;2022-11-15T00:35:12;99286.94;;;12.93;86.25
9740;BME280;4909;42.680;26.324;2022-11-15T00:37:38;99290.09;;;12.82;86.31
9740;BME280;4909;42.680;26.324;2022-11-15T00:40:06;99275.16;;;12.58;87.25
9740;BME280;4909;42.680;26.324;2022-11-15T00:42:33;99271.69;;;12.56;87.78
9740;BME280;4909;42.680;26.324;2022-11-15T00:45:00;99262.88;;;12.34;89.19
9740;BME280;4909;42.680;26.324;2022-11-15T00:47:27;99262.19;;;12.29;89.01
9740;BME280;4909;42.680;26.324;2022-11-15T00:49:53;99253.34;;;12.28;89.04
9740;BME280;4909;42.680;26.324;2022-11-15T00:52:22;99258.28;;;12.37;88.62
9740;BME280;4909;42.680;26.324;2022-11-15T00:54:48;99262.97;;;12.31;88.98
9740;BME280;4909;42.680;26.324;2022-11-15T00:57:15;99262.41;;;12.44;88.30
9740;BME280;4909;42.680;26.324;2022-11-15T00:59:42;99260.59;;;12.45;88.77
9740;BME280;4909;42.680;26.324;2022-11-15T01:02:08;99253.91;;;12.56;87.36
9740;BME280;4909;42.680;26.324;2022-11-15T01:04:35;99266.34;;;12.56;88.14
9740;BME280;4909;42.680;26.324;2022-11-15T01:07:02;99265.22;;;12.61;87.84
9740;BME280;4909;42.680;26.324;2022-11-15T01:09:30;99259.38;;;12.53;88.13
9740;BME280;4909;42.680;26.324;2022-11-15T01:11:57;99255.66;;;12.57;87.81
9740;BME280;4909;42.680;26.324;2022-11-15T01:14:24;99247.09;;;12.49;88.38
9740;BME280;4909;42.680;26.324;2022-11-15T01:16:50;99246.53;;;12.63;87.74
9740;BME280;4909;42.680;26.324;2022-11-15T01:19:17;99245.19;;;12.53;87.33
9740;BME280;4909;42.680;26.324;2022-11-15T01:21:44;99248.84;;;12.50;87.66
9740;BME280;4909;42.680;26.324;2022-11-15T01:24:12;99248.31;;;12.42;87.91
9740;BME280;4909;42.680;26.324;2022-11-15T01:26:41;99248.41;;;12.39;88.30
9740;BME280;4909;42.680;26.324;2022-11-15T01:29:07;99245.09;;;12.34;88.75
9740;BME280;4909;42.680;26.324;2022-11-15T01:31:35;99245.66;;;12.42;88.25
9740;BME280;4909;42.680;26.324;2022-11-15T01:34:01;99241.09;;;12.44;88.33
9740;BME280;4909;42.680;26.324;2022-11-15T01:36:28;99238.09;;;12.32;88.44
9740;BME280;4909;42.680;26.324;2022-11-15T01:38:56;99237.81;;;12.17;89.35
9740;BME280;4909;42.680;26.324;2022-11-15T01:41:26;99235.00;;;12.20;89.72
9740;BME280;4909;42.680;26.324;2022-11-15T01:43:56;99219.69;;;12.05;89.28
9740;BME280;4909;42.680;26.324;2022-11-15T01:46:27;99235.88;;;12.21;89.74
9740;BME280;4909;42.680;26.324;2022-11-15T01:48:58;99240.16;;;12.25;89.24
9740;BME280;4909;42.680;26.324;2022-11-15T01:51:26;99245.34;;;12.28;88.86
9740;BME280;4909;42.680;26.324;2022-11-15T01:53:57;99241.88;;;12.26;89.13
9740;BME280;4909;42.680;26.324;2022-11-15T01:56:27;99240.41;;;12.19;89.71
9740;BME280;4909;42.680;26.324;2022-11-15T01:58:58;99245.06;;;12.14;90.27
9740;BME280;4909;42.680;26.324;2022-11-15T02:01:26;99238.97;;;12.10;90.06
9740;BME280;4909;42.680;26.324;2022-11-15T02:03:58;99240.81;;;12.10;90.08
9740;BME280;4909;42.680;26.324;2022-11-15T02:06:25;99230.16;;;12.10;90.46
9740;BME280;4909;42.680;26.324;2022-11-15T02:08:52;99227.50;;;12.10;90.59
9740;BME280;4909;42.680;26.324;2022-11-15T02:11:19;99231.75;;;11.92;91.65
9740;BME280;4909;42.680;26.324;2022-11-15T02:13:46;99223.16;;;12.07;91.16
9740;BME280;4909;42.680;26.324;2022-11-15T02:16:20;99225.75;;;12.09;90.77
9740;BME280;4909;42.680;26.324;2022-11-15T02:18:55;99226.88;;;12.03;91.65
9740;BME280;4909;42.680;26.324;2022-11-15T02:21:28;99220.63;;;12.04;91.83
9740;BME280;4909;42.680;26.324;2022-11-15T02:24:11;99218.38;;;12.15;91.82
9740;BME280;4909;42.680;26.324;2022-11-15T02:30:04;99222.03;;;11.91;92.91
9740;BME280;4909;42.680;26.324;2022-11-15T02:32:37;99227.50;;;11.88;92.80
9740;BME280;4909;42.680;26.324;2022-11-15T02:35:13;99229.09;;;11.92;93.12
9740;BME280;4909;42.680;26.324;2022-11-15T02:37:45;99225.09;;;12.04;92.50
9740;BME280;4909;42.680;26.324;2022-11-15T02:40:20;99213.31;;;12.09;91.85
9740;BME280;4909;42.680;26.324;2022-11-15T02:42:54;99214.31;;;12.07;91.95
9740;BME280;4909;42.680;26.324;2022-11-15T02:45:43;99211.78;;;12.04;91.25
9740;BME280;4909;42.680;26.324;2022-11-15T02:48:14;99217.53;;;12.15;90.70
9740;BME280;4909;42.680;26.324;2022-11-15T02:50:42;99214.53;;;12.01;91.67
9740;BME280;4909;42.680;26.324;2022-11-15T02:53:09;99211.84;;;12.02;91.79
9740;BME280;4909;42.680;26.324;2022-11-15T02:55:37;99205.06;;;11.95;92.07
9740;BME280;4909;42.680;26.324;2022-11-15T02:58:19;99203.97;;;11.77;93.02
9740;BME280;4909;42.680;26.324;2022-11-15T03:00:52;99214.81;;;11.73;93.82
9740;BME280;4909;42.680;26.324;2022-11-15T03:03:40;99212.63;;;11.83;93.57
9740;BME280;4909;42.680;26.324;2022-11-15T03:06:22;99213.94;;;11.72;94.17
9740;BME280;4909;42.680;26.324;2022-11-15T03:09:01;99197.06;;;11.72;94.32
9740;BME280;4909;42.680;26.324;2022-11-15T03:11:32;99209.09;;;11.60;94.95
9740;BME280;4909;42.680;26.324;2022-11-15T03:14:07;99210.88;;;11.60;95.53
9740;BME280;4909;42.680;26.324;2022-11-15T03:16:37;99201.97;;;11.61;95.21
9740;BME280;4909;42.680;26.324;2022-11-15T03:19:11;99213.94;;;11.72;94.71
9740;BME280;4909;42.680;26.324;2022-11-15T03:21:40;99211.31;;;11.71;94.52
9740;BME280;4909;42.680;26.324;2022-11-15T03:24:08;99212.28;;;11.68;94.74
9740;BME280;4909;42.680;26.324;2022-11-15T03:26:37;99206.41;;;11.84;94.38
9740;BME280;4909;42.680;26.324;2022-11-15T03:29:08;99199.72;;;11.95;93.26
9740;BME280;4909;42.680;26.324;2022-11-15T03:31:40;99200.59;;;11.74;94.45
9740;BME280;4909;42.680;26.324;2022-11-15T03:34:20;99202.84;;;11.61;95.48
9740;BME280;4909;42.680;26.324;2022-11-15T03:36:49;99198.13;;;11.68;95.15
9740;BME280;4909;42.680;26.324;2022-11-15T03:39:17;99201.38;;;11.53;95.78
9740;BME280;4909;42.680;26.324;2022-11-15T03:41:48;99193.88;;;11.64;95.43
9740;BME280;4909;42.680;26.324;2022-11-15T03:44:21;99190.38;;;11.62;95.11
9740;BME280;4909;42.680;26.324;2022-11-15T03:46:55;99176.91;;;11.45;95.82
9740;BME280;4909;42.680;26.324;2022-11-15T03:49:28;99180.22;;;11.28;97.17
9740;BME280;4909;42.680;26.324;2022-11-15T03:51:58;99182.88;;;11.51;97.08
9740;BME280;4909;42.680;26.324;2022-11-15T03:54:25;99184.16;;;11.41;97.16
9740;BME280;4909;42.680;26.324;2022-11-15T03:56:52;99185.25;;;11.36;97.92
9740;BME280;4909;42.680;26.324;2022-11-15T03:59:19;99181.59;;;11.38;98.09
9740;BME280;4909;42.680;26.324;2022-11-15T04:01:45;99188.06;;;11.54;97.24
9740;BME280;4909;42.680;26.324;2022-11-15T04:04:12;99182.78;;;11.53;96.14
9740;BME280;4909;42.680;26.324;2022-11-15T04:06:40;99182.47;;;11.39;97.33
9740;BME280;4909;42.680;26.324;2022-11-15T04:09:07;99177.66;;;11.26;98.67
9740;BME280;4909;42.680;26.324;2022-11-15T04:11:34;99182.03;;;11.27;98.73
9740;BME280;4909;42.680;26.324;2022-11-15T04:14:01;99159.44;;;11.16;99.14
9740;BME280;4909;42.680;26.324;2022-11-15T04:16:27;99171.59;;;11.23;99.59
9740;BME280;4909;42.680;26.324;2022-11-15T04:18:54;99175.59;;;11.33;99.12
9740;BME280;4909;42.680;26.324;2022-11-15T04:21:35;99183.91;;;11.24;99.33
9740;BME280;4909;42.680;26.324;2022-11-15T04:24:20;99176.53;;;11.32;99.40
9740;BME280;4909;42.680;26.324;2022-11-15T04:26:47;99180.69;;;11.39;98.63
9740;BME280;4909;42.680;26.324;2022-11-15T04:29:13;99162.06;;;11.39;97.55
9740;BME280;4909;42.680;26.324;2022-11-15T04:31:57;99174.13;;;11.48;96.71
9740;BME280;4909;42.680;26.324;2022-11-15T04:34:24;99171.91;;;11.14;98.83
9740;BME280;4909;42.680;26.324;2022-11-15T04:36:51;99165.59;;;11.18;99.49
9740;BME280;4909;42.680;26.324;2022-11-15T04:39:36;99167.66;;;11.10;99.45
9740;BME280;4909;42.680;26.324;2022-11-15T04:42:03;99171.59;;;11.23;99.39
9740;BME280;4909;42.680;26.324;2022-11-15T04:44:30;99179.69;;;11.18;99.44
9740;BME280;4909;42.680;26.324;2022-11-15T04:46:57;99178.44;;;11.05;99.86
9740;BME280;4909;42.680;26.324;2022-11-15T04:49:23;99173.34;;;10.99;100.00
9740;BME280;4909;42.680;26.324;2022-11-15T04:51:50;99176.47;;;11.10;100.00
9740;BME280;4909;42.680;26.324;2022-11-15T04:54:17;99175.94;;;11.24;99.75
9740;BME280;4909;42.680;26.324;2022-11-15T04:56:45;99167.06;;;11.25;99.46
9740;BME280;4909;42.680;26.324;2022-11-15T04:59:12;99170.00;;;11.41;98.41
9740;BME280;4909;42.680;26.324;2022-11-15T05:01:39;99170.41;;;11.30;98.49
9740;BME280;4909;42.680;26.324;2022-11-15T05:04:06;99164.78;;;11.38;98.19
9740;BME280;4909;42.680;26.324;2022-11-15T05:06:44;99142.50;;;11.18;97.90
9740;BME280;4909;42.680;26.324;2022-11-15T05:09:11;99169.03;;;11.20;98.55
9740;BME280;4909;42.680;26.324;2022-11-15T05:11:39;99164.88;;;11.13;99.62
9740;BME280;4909;42.680;26.324;2022-11-15T05:14:07;99168.25;;;11.18;99.37
9740;BME280;4909;42.680;26.324;2022-11-15T05:16:34;99163.94;;;11.14;99.23
9740;BME280;4909;42.680;26.324;2022-11-15T05:19:01;99167.94;;;11.25;99.29
9740;BME280;4909;42.680;26.324;2022-11-15T05:21:28;99161.06;;;11.20;98.91
9740;BME280;4909;42.680;26.324;2022-11-15T05:23:55;99167.47;;;11.14;99.53
9740;BME280;4909;42.680;26.324;2022-11-15T05:26:22;99170.06;;;11.16;100.00
9740;BME280;4909;42.680;26.324;2022-11-15T05:28:52;99168.25;;;11.18;99.37
9740;BME280;4909;42.680;26.324;2022-11-15T05:31:21;99172.16;;;11.08;99.75
9740;BME280;4909;42.680;26.324;2022-11-15T05:33:49;99174.34;;;11.20;99.59
9740;BME280;4909;42.680;26.324;2022-11-15T05:36:20;99131.00;;;10.96;99.92
9740;BME280;4909;42.680;26.324;2022-11-15T05:38:48;99181.44;;;11.19;99.90
9740;BME280;4909;42.680;26.324;2022-11-15T05:41:17;99181.00;;;11.31;98.95
9740;BME280;4909;42.680;26.324;2022-11-15T05:43:46;99174.56;;;11.37;98.12
9740;BME280;4909;42.680;26.324;2022-11-15T05:46:15;99178.38;;;11.30;98.43
9740;BME280;4909;42.680;26.324;2022-11-15T05:48:45;99175.22;;;11.20;99.27
9740;BME280;4909;42.680;26.324;2022-11-15T05:51:16;99186.38;;;11.07;99.68
9740;BME280;4909;42.680;26.324;2022-11-15T05:53:44;99176.78;;;11.03;100.00
9740;BME280;4909;42.680;26.324;2022-11-15T05:56:12;99181.94;;;11.07;100.00
9740;BME280;4909;42.680;26.324;2022-11-15T05:58:40;99180.22;;;11.28;99.40
9740;BME280;4909;42.680;26.324;2022-11-15T06:01:07;99184.63;;;11.29;98.92
9740;BME280;4909;42.680;26.324;2022-11-15T06:03:34;99182.13;;;11.24;99.05
9740;BME280;4909;42.680;26.324;2022-11-15T06:06:02;99184.88;;;11.23;99.68
9740;BME280;4909;42.680;26.324;2022-11-15T06:08:29;99191.63;;;11.31;99.22
9740;BME280;4909;42.680;26.324;2022-11-15T06:10:56;99188.78;;;11.36;97.55
9740;BME280;4909;42.680;26.324;2022-11-15T06:13:23;99190.06;;;11.26;97.97
9740;BME280;4909;42.680;26.324;2022-11-15T06:15:49;99195.41;;;11.24;99.42
9740;BME280;4909;42.680;26.324;2022-11-15T06:18:16;99197.28;;;11.22;99.38
9740;BME280;4909;42.680;26.324;2022-11-15T06:20:43;99197.50;;;11.16;99.76
9740;BME280;4909;42.680;26.324;2022-11-15T06:23:11;99203.97;;;11.09;99.66
9740;BME280;4909;42.680;26.324;2022-11-15T06:25:38;99202.31;;;11.07;100.00
9740;BME280;4909;42.680;26.324;2022-11-15T06:28:05;99200.38;;;10.87;100.00
9740;BME280;4909;42.680;26.324;2022-11-15T06:30:32;99200.97;;;10.95;100.00
9740;BME280;4909;42.680;26.324;2022-11-15T06:32:59;99188.47;;;10.99;99.21
9740;BME280;4909;42.680;26.324;2022-11-15T06:35:27;99202.75;;;10.95;99.97
9740;BME280;4909;42.680;26.324;2022-11-15T06:37:54;99192.25;;;10.92;99.78
9740;BME280;4909;42.680;26.324;2022-11-15T06:40:22;99196.03;;;10.84;100.00
9740;BME280;4909;42.680;26.324;2022-11-15T06:42:49;99203.91;;;11.11;98.41
9740;BME280;4909;42.680;26.324;2022-11-15T06:45:16;99201.56;;;11.03;98.24
9740;BME280;4909;42.680;26.324;2022-11-15T06:47:46;99200.03;;;11.19;97.94
9740;BME280;4909;42.680;26.324;2022-11-15T06:50:13;99206.28;;;11.18;97.45
9740;BME280;4909;42.680;26.324;2022-11-15T06:52:40;99187.63;;;11.20;97.24
9740;BME280;4909;42.680;26.324;2022-11-15T06:55:08;99203.47;;;11.23;96.94
9740;BME280;4909;42.680;26.324;2022-11-15T06:57:36;99180.22;;;11.05;97.42
9740;BME280;4909;42.680;26.324;2022-11-15T07:00:04;99208.88;;;11.20;97.68
9740;BME280;4909;42.680;26.324;2022-11-15T07:02:31;99206.69;;;11.31;96.12
9740;BME280;4909;42.680;26.324;2022-11-15T07:04:58;99210.28;;;11.30;96.38
9740;BME280;4909;42.680;26.324;2022-11-15T07:07:25;99205.81;;;11.30;95.86
9740;BME280;4909;42.680;26.324;2022-11-15T07:09:51;99207.66;;;11.28;95.70
9740;BME280;4909;42.680;26.324;2022-11-15T07:12:18;99209.41;;;11.29;96.57
9740;BME280;4909;42.680;26.324;2022-11-15T07:14:46;99203.63;;;11.42;95.14
9740;BME280;4909;42.680;26.324;2022-11-15T07:17:13;99199.22;;;11.41;94.41
9740;BME280;4909;42.680;26.324;2022-11-15T07:19:40;99197.84;;;11.30;95.53
9740;BME280;4909;42.680;26.324;2022-11-15T07:22:07;99198.53;;;11.36;94.73
9740;BME280;4909;42.680;26.324;2022-11-15T07:24:33;99200.38;;;11.33;94.52
9740;BME280;4909;42.680;26.324;2022-11-15T07:27:00;99188.97;;;11.31;94.46
9740;BME280;4909;42.680;26.324;2022-11-15T07:29:27;99205.31;;;11.21;95.24
9740;BME280;4909;42.680;26.324;2022-11-15T07:31:55;99204.84;;;11.10;96.87
9740;BME280;4909;42.680;26.324;2022-11-15T07:34:22;99192.31;;;11.13;97.48
9740;BME280;4909;42.680;26.324;2022-11-15T07:36:49;99196.66;;;11.16;96.58
9740;BME280;4909;42.680;26.324;2022-11-15T07:39:15;99193.94;;;11.17;96.52
9740;BME280;4909;42.680;26.324;2022-11-15T07:41:42;99193.06;;;11.17;96.30
9740;BME280;4909;42.680;26.324;2022-11-15T07:44:10;99194.16;;;11.34;96.26
9740;BME280;4909;42.680;26.324;2022-11-15T07:46:36;99193.78;;;11.44;95.07
9740;BME280;4909;42.680;26.324;2022-11-15T07:49:04;99196.41;;;11.45;94.56
9740;BME280;4909;42.680;26.324;2022-11-15T07:51:31;99196.97;;;11.30;94.59
9740;BME280;4909;42.680;26.324;2022-11-15T07:53:58;99190.34;;;11.18;95.88
9740;BME280;4909;42.680;26.324;2022-11-15T07:56:25;99187.41;;;11.26;95.07
9740;BME280;4909;42.680;26.324;2022-11-15T07:58:52;99186.41;;;11.28;95.02
9740;BME280;4909;42.680;26.324;2022-11-15T08:01:19;99192.38;;;11.12;95.70
9740;BME280;4909;42.680;26.324;2022-11-15T08:03:45;99190.13;;;11.01;96.33
9740;BME280;4909;42.680;26.324;2022-11-15T08:06:14;99194.22;;;11.10;96.41
9740;BME280;4909;42.680;26.324;2022-11-15T08:08:40;99193.44;;;11.29;95.78
9740;BME280;4909;42.680;26.324;2022-11-15T08:11:07;99199.50;;;11.33;95.62
9740;BME280;4909;42.680;26.324;2022-11-15T08:13:34;99197.06;;;11.50;94.29
9740;BME280;4909;42.680;26.324;2022-11-15T08:16:01;99195.34;;;11.49;93.43
9740;BME280;4909;42.680;26.324;2022-11-15T08:18:30;99199.78;;;11.49;93.36
9740;BME280;4909;42.680;26.324;2022-11-15T08:20:59;99196.06;;;11.53;92.98
9740;BME280;4909;42.680;26.324;2022-11-15T08:23:27;99207.47;;;11.56;93.22
9740;BME280;4909;42.680;26.324;2022-11-15T08:25:59;99199.97;;;11.44;93.11
9740;BME280;4909;42.680;26.324;2022-11-15T08:28:26;99200.66;;;11.49;93.80
9740;BME280;4909;42.680;26.324;2022-11-15T08:30:53;99198.38;;;11.17;94.50
9740;BME280;4909;42.680;26.324;2022-11-15T08:33:19;99201.31;;;11.09;95.25
9740;BME280;4909;42.680;26.324;2022-11-15T08:35:46;99192.25;;;11.15;95.75
9740;BME280;4909;42.680;26.324;2022-11-15T08:38:14;99188.59;;;11.41;94.50
9740;BME280;4909;42.680;26.324;2022-11-15T08:40:42;99187.69;;;11.42;93.88
9740;BME280;4909;42.680;26.324;2022-11-15T08:43:09;99176.41;;;11.35;93.50
9740;BME280;4909;42.680;26.324;2022-11-15T08:45:35;99184.25;;;11.38;93.41
9740;BME280;4909;42.680;26.324;2022-11-15T08:48:03;99171.84;;;11.39;93.52
9740;BME280;4909;42.680;26.324;2022-11-15T08:50:31;99144.75;;;11.07;93.57
9740;BME280;4909;42.680;26.324;2022-11-15T08:53:04;99170.88;;;11.41;93.60
9740;BME280;4909;42.680;26.324;2022-11-15T08:55:31;99163.06;;;11.58;92.82
9740;BME280;4909;42.680;26.324;2022-11-15T08:57:59;99161.78;;;11.68;91.18
9740;BME280;4909;42.680;26.324;2022-11-15T09:00:26;99151.81;;;11.75;91.22
9740;BME280;4909;42.680;26.324;2022-11-15T09:02:53;99143.81;;;11.75;90.44
9740;BME280;4909;42.680;26.324;2022-11-15T09:05:20;99147.34;;;11.75;90.26
9740;BME280;4909;42.680;26.324;2022-11-15T09:07:46;99145.28;;;11.60;90.99
9740;BME280;4909;42.680;26.324;2022-11-15T09:10:14;99142.38;;;11.45;91.44
9740;BME280;4909;42.680;26.324;2022-11-15T09:12:40;99136.38;;;11.61;91.45
9740;BME280;4909;42.680;26.324;2022-11-15T09:15:09;99139.72;;;11.66;91.50
9740;BME280;4909;42.680;26.324;2022-11-15T09:17:36;99135.13;;;11.70;91.15
9740;BME280;4909;42.680;26.324;2022-11-15T09:20:03;99131.13;;;11.82;89.89
9740;BME280;4909;42.680;26.324;2022-11-15T09:22:30;99128.72;;;11.75;90.33
9740;BME280;4909;42.680;26.324;2022-11-15T09:24:57;99135.66;;;11.80;89.95
9740;BME280;4909;42.680;26.324;2022-11-15T09:27:27;99126.22;;;11.93;89.56
9740;BME280;4909;42.680;26.324;2022-11-15T09:29:54;99128.88;;;11.93;88.80
9740;BME280;4909;42.680;26.324;2022-11-15T09:32:22;99124.38;;;11.95;88.95
9740;BME280;4909;42.680;26.324;2022-11-15T09:34:49;99121.91;;;11.90;89.39
9740;BME280;4909;42.680;26.324;2022-11-15T09:37:16;99108.13;;;11.81;88.63
9740;BME280;4909;42.680;26.324;2022-11-15T09:39:43;99112.13;;;11.91;88.69
9740;BME280;4909;42.680;26.324;2022-11-15T09:42:25;99108.88;;;11.84;89.30
9740;BME280;4909;42.680;26.324;2022-11-15T09:45:04;99115.28;;;11.79;90.31
9740;BME280;4909;42.680;26.324;2022-11-15T09:47:50;99106.81;;;11.91;89.65
9740;BME280;4909;42.680;26.324;2022-11-15T09:50:31;99098.41;;;11.80;89.70
9740;BME280;4909;42.680;26.324;2022-11-15T09:52:58;99100.06;;;11.82;90.38
9740;BME280;4909;42.680;26.324;2022-11-15T09:55:35;99092.06;;;12.04;89.33
9740;BME280;4909;42.680;26.324;2022-11-15T09:58:14;99094.50;;;12.08;88.56
9740;BME280;4909;42.680;26.324;2022-11-15T10:00:46;99098.97;;;12.08;87.55
9740;BME280;4909;42.680;26.324;2022-11-15T10:03:24;99087.47;;;12.07;88.15
9740;BME280;4909;42.680;26.324;2022-11-15T10:05:56;99076.56;;;12.13;87.93
9740;BME280;4909;42.680;26.324;2022-11-15T10:08:33;99075.94;;;12.27;87.06
9740;BME280;4909;42.680;26.324;2022-11-15T10:11:04;99071.34;;;12.31;86.34
9740;BME280;4909;42.680;26.324;2022-11-15T10:13:35;99067.97;;;12.27;86.51
9740;BME280;4909;42.680;26.324;2022-11-15T10:16:10;99069.22;;;12.39;85.55
9740;BME280;4909;42.680;26.324;2022-11-15T10:18:49;99065.97;;;12.32;85.92
9740;BME280;4909;42.680;26.324;2022-11-15T10:21:21;99059.63;;;12.35;85.66
9740;BME280;4909;42.680;26.324;2022-11-15T10:23:50;99060.84;;;12.28;85.45
9740;BME280;4909;42.680;26.324;2022-11-15T10:26:17;99016.84;;;12.00;85.90
9740;BME280;4909;42.680;26.324;2022-11-15T10:28:44;99047.50;;;12.09;86.20
9740;BME280;4909;42.680;26.324;2022-11-15T10:31:22;99045.81;;;12.06;86.75
9740;BME280;4909;42.680;26.324;2022-11-15T10:33:51;99042.69;;;12.17;86.78
9740;BME280;4909;42.680;26.324;2022-11-15T10:36:20;99025.44;;;12.05;86.96
9740;BME280;4909;42.680;26.324;2022-11-15T10:38:56;99032.75;;;12.20;86.37
9740;BME280;4909;42.680;26.324;2022-11-15T10:41:32;99024.34;;;12.30;85.88
9740;BME280;4909;42.680;26.324;2022-11-15T10:44:27;99022.00;;;12.24;86.35
9740;BME280;4909;42.680;26.324;2022-11-15T10:47:20;99019.53;;;12.19;86.48
9740;BME280;4909;42.680;26.324;2022-11-15T10:50:01;99013.91;;;12.25;85.73
9740;BME280;4909;42.680;26.324;2022-11-15T10:52:30;99010.06;;;12.32;85.56
9740;BME280;4909;42.680;26.324;2022-11-15T10:55:02;98984.81;;;12.22;85.28
9740;BME280;4909;42.680;26.324;2022-11-15T10:57:32;99009.47;;;12.26;85.54
9740;BME280;4909;42.680;26.324;2022-11-15T11:00:03;99002.88;;;12.34;85.37
9740;BME280;4909;42.680;26.324;2022-11-15T11:02:32;99004.16;;;12.44;84.67
9740;BME280;4909;42.680;26.324;2022-11-15T11:05:04;99007.03;;;12.40;84.17
9740;BME280;4909;42.680;26.324;2022-11-15T11:07:34;99001.66;;;12.41;84.35
9740;BME280;4909;42.680;26.324;2022-11-15T11:10:05;98993.72;;;12.40;84.86
9740;BME280;4909;42.680;26.324;2022-11-15T11:12:43;99000.03;;;12.57;84.31
9740;BME280;4909;42.680;26.324;2022-11-15T11:15:12;98995.03;;;12.69;83.26
9740;BME280;4909;42.680;26.324;2022-11-15T11:17:51;98982.81;;;12.64;83.64
9740;BME280;4909;42.680;26.324;2022-11-15T11:20:26;98987.56;;;12.77;83.81
9740;BME280;4909;42.680;26.324;2022-11-15T11:23:20;98980.00;;;12.86;83.36
9740;BME280;4909;42.680;26.324;2022-11-15T11:25:56;98980.47;;;12.94;82.23
9740;BME280;4909;42.680;26.324;2022-11-15T11:28:36;98976.66;;;13.00;80.86
9740;BME280;4909;42.680;26.324;2022-11-15T11:31:13;98974.28;;;12.94;80.26
9740;BME280;4909;42.680;26.324;2022-11-15T11:33:44;98977.22;;;12.88;79.29
9740;BME280;4909;42.680;26.324;2022-11-15T11:36:22;98966.56;;;12.88;79.04
9740;BME280;4909;42.680;26.324;2022-11-15T11:38:58;98964.00;;;12.86;79.17
9740;BME280;4909;42.680;26.324;2022-11-15T11:41:53;98959.91;;;12.79;79.78
9740;BME280;4909;42.680;26.324;2022-11-15T11:44:30;98958.31;;;12.75;80.26
9740;BME280;4909;42.680;26.324;2022-11-15T11:47:00;98950.09;;;12.80;80.11
9740;BME280;4909;42.680;26.324;2022-11-15T11:49:33;98928.81;;;12.80;80.07
9740;BME280;4909;42.680;26.324;2022-11-15T11:52:08;98941.84;;;13.03;79.88
9740;BME280;4909;42.680;26.324;2022-11-15T11:54:46;98944.94;;;13.13;79.16
9740;BME280;4909;42.680;26.324;2022-11-15T11:57:22;98945.81;;;13.13;78.03
9740;BME280;4909;42.680;26.324;2022-11-15T11:59:55;98937.69;;;13.16;77.86
9740;BME280;4909;42.680;26.324;2022-11-15T12:02:28;98932.91;;;13.04;78.14
9740;BME280;4909;42.680;26.324;2022-11-15T12:05:03;98929.31;;;13.05;78.04
9740;BME280;4909;42.680;26.324;2022-11-15T12:07:34;98933.44;;;13.12;77.53
9740;BME280;4909;42.680;26.324;2022-11-15T12:10:05;98927.53;;;13.05;77.79
9740;BME280;4909;42.680;26.324;2022-11-15T12:12:45;98926.19;;;12.97;78.96
9740;BME280;4909;42.680;26.324;2022-11-15T12:15:17;98923.38;;;13.00;79.21
9740;BME280;4909;42.680;26.324;2022-11-15T12:17:45;98918.09;;;12.98;79.14
9740;BME280;4909;42.680;26.324;2022-11-15T12:20:16;98916.06;;;13.03;78.30
9740;BME280;4909;42.680;26.324;2022-11-15T12:22:48;98897.94;;;12.93;78.05
9740;BME280;4909;42.680;26.324;2022-11-15T12:25:21;98912.25;;;13.09;78.04
9740;BME280;4909;42.680;26.324;2022-11-15T12:27:53;98912.31;;;13.07;78.24
9740;BME280;4909;42.680;26.324;2022-11-15T12:30:23;98889.41;;;13.03;78.07
9740;BME280;4909;42.680;26.324;2022-11-15T12:32:54;98916.84;;;13.24;77.75
9740;BME280;4909;42.680;26.324;2022-11-15T12:35:28;98917.78;;;13.23;76.49
9740;BME280;4909;42.680;26.324;2022-11-15T12:37:58;98917.00;;;13.21;76.55
9740;BME280;4909;42.680;26.324;2022-11-15T12:40:27;98913.09;;;13.10;76.77
9740;BME280;4909;42.680;26.324;2022-11-15T12:46:12;98902.44;;;13.10;77.37
9740;BME280;4909;42.680;26.324;2022-11-15T12:48:57;98903.28;;;13.12;77.26
9740;BME280;4909;42.680;26.324;2022-11-15T12:54:51;98899.75;;;13.11;77.35
9740;BME280;4909;42.680;26.324;2022-11-15T12:57:37;98885.66;;;13.07;77.35
9740;BME280;4909;42.680;26.324;2022-11-15T13:03:23;98895.34;;;13.27;77.15
9740;BME280;4909;42.680;26.324;2022-11-15T13:06:09;98891.41;;;13.17;76.77
9740;BME280;4909;42.680;26.324;2022-11-15T13:08:56;98889.78;;;13.15;76.57
9740;BME280;4909;42.680;26.324;2022-11-15T13:11:46;98883.13;;;13.23;76.88
9740;BME280;4909;42.680;26.324;2022-11-15T13:14:43;98877.66;;;13.26;76.75
9740;BME280;4909;42.680;26.324;2022-11-15T13:17:27;98874.88;;;13.28;76.68
9740;BME280;4909;42.680;26.324;2022-11-15T13:19:59;98861.34;;;13.15;77.23
9740;BME280;4909;42.680;26.324;2022-11-15T13:22:26;98866.38;;;13.21;77.14
9740;BME280;4909;42.680;26.324;2022-11-15T13:25:15;98861.03;;;13.02;77.76
9740;BME280;4909;42.680;26.324;2022-11-15T13:27:46;98861.22;;;12.99;78.13
9740;BME280;4909;42.680;26.324;2022-11-15T13:30:18;98853.91;;;13.03;78.05
9740;BME280;4909;42.680;26.324;2022-11-15T13:32:46;98844.66;;;13.12;77.11
9740;BME280;4909;42.680;26.324;2022-11-15T13:35:19;98837.16;;;13.01;77.24
9740;BME280;4909;42.680;26.324;2022-11-15T13:37:47;98844.22;;;13.02;77.21
9740;BME280;4909;42.680;26.324;2022-11-15T13:40:24;98845.47;;;12.95;77.34